x

West Santa Barbara 38 Nm West Of Santa Barbara, Ca (46054) Wave Buoy

7:50 - Sun 28th Aug 2016 All times are PDT. -7 hours from GMT.

  • Sig Wave height 5.2ft
  • Swell Direction
  • Peak Period 5s
  • Average Period 5s
  • Wind
    27mph, 31mph gusts
  • Sea Temp 59°f
  • Air Temp 61°f
  • Sea Pressure 1015.1mb
  • West Santa Barbara  38 Nm West Of Santa Barbara, Ca
  • West Santa Barbara  38 Nm West Of Santa Barbara, Ca

More Historic Weather Station data

Upgrade to MSW Pro to gain access to the past 30 days of data for over 8000 Wavebouys and Weather Stations around the globe.

Join Pro

Comparision Forecast

View Surf forecast
   
dim. 08/28 7:50 5ft 5s 5s 27 31 mph 1015.1mb 59f 61f
6:50 5ft 5s 5s 27 34 mph 1014.9mb 59f 61f
5:50 5ft 5s 5s 27 34 mph 1014.9mb 59f 61f
4:50 5ft 5s 5s 27 31 mph 1015.2mb 59f 61f
3:50 5ft 5s 5s 27 31 mph 1015.5mb 59f 61f
2:50 5ft 5s 5s 27 31 mph 1016.2mb 59f 61f
1:50 4.5ft 5s 5s 22 29 mph 1016.9mb 59f 61f
12:50 5ft 5s 5s 22 27 mph 1017mb 59f 61f
11:50 5ft 10s 5s 22 27 mph 1017.4mb 59f 61f
10:50 4.5ft 10s 5s 22 27 mph 1017.7mb 60f 61f
9:50 4ft 10s 5s 22 27 mph 1017.8mb 60f 61f
8:50 3.5ft 10s 5s 20 25 mph 1017.3mb 60f 60f
7:50 4ft 10s 5s 22 25 mph 1017mb 60f 61f
6:50 4ft 10s 5s 22 27 mph 1016.4mb 59f 61f
5:50 3.5ft 10s 5s 22 27 mph 1015.7mb 59f 60f
4:50 3.5ft 10s 5s 20 25 mph 1015.5mb 59f 60f
3:50 3.5ft 9s 5s 20 25 mph 1015.7mb 59f 61f
2:50 4ft 14s 5s 20 22 mph 1015.7mb 59f 61f
1:50 4.5ft 9s 5s 18 22 mph 1015.7mb 60f 61f
12:50 4.5ft 9s 5s 20 25 mph 1015.8mb 60f 61f
sam. 08/27 11:50 4.5ft 9s 5s 20 25 mph 1015.8mb 60f 61f
10:50 4.5ft 10s 5s 22 27 mph 1015.6mb 60f 62f
9:50 4.5ft 9s 5s 22 25 mph 1015.4mb 61f 62f
8:50 4ft 14s 5s 20 22 mph 1015.2mb 61f 62f
7:50 4ft 10s 5s 20 25 mph 1014.8mb 60f 62f
6:50 4.5ft 9s 6s 20 25 mph 1014.7mb 60f 62f
5:50 3.5ft 9s 5s 20 25 mph 1015mb 60f 62f
4:50 4ft 10s 6s 18 22 mph 1015.4mb 60f 62f
3:50 3.5ft 14s 6s 13 18 mph 1015.9mb 59f 61f
2:50 3.5ft 11s 6s 13 16 mph 1016.4mb 59f 61f
1:50 3ft 10s 5s 13 16 mph 1016.8mb 59f 61f
12:50 3.5ft 15s 6s 13 18 mph 1016.5mb 59f 61f
11:50 3.5ft 9s 5s 13 16 mph 1016.8mb 59f 61f
10:50 3.5ft 15s 6s 13 16 mph 1017mb 59f 61f
9:50 3.5ft 9s 6s 13 18 mph 1016.5mb 59f 61f
8:50 3.5ft 14s 6s 16 18 mph 1016.2mb 59f 61f
7:50 3.5ft 15s 6s 13 18 mph 1015.7mb 60f 61f
6:50 3.5ft 15s 6s 11 16 mph 1015.1mb 60f 61f
5:50 3.5ft 14s 6s 16 18 mph 1014.7mb 60f 61f
4:50 3.5ft 14s 5s 16 18 mph 1014.5mb 60f 61f
3:50 3.5ft 14s 5s 18 20 mph 1014.4mb 60f 61f
2:50 3.5ft 15s 5s 16 20 mph 1014.2mb 60f 61f
1:50 3.5ft 14s 6s 18 20 mph 1014.4mb 60f 61f
12:50 3.5ft 15s 5s 18 20 mph 1014.6mb 60f 61f
ven. 08/26 11:50 3.5ft 14s 5s 18 22 mph 1014.6mb 60f 61f
10:50 3.5ft 14s 5s 18 20 mph 1014.7mb 60f 62f
9:50 3.5ft 15s 5s 18 20 mph 1014.7mb 60f 62f
8:50 3.5ft 15s 5s 18 20 mph 1014.6mb 60f 62f
7:50 3.5ft 14s 5s 18 20 mph 1014.3mb 60f 62f
6:50 3.5ft 13s 6s 13 18 mph 1014.3mb 60f 62f
5:50 3.5ft 14s 6s 11 13 mph 1014.3mb 60f 61f
4:50 3.5ft 15s 6s 11 16 mph 1014.4mb 60f 62f
3:50 3.5ft 14s 6s 11 13 mph 1014.6mb 60f 61f
2:50 3.5ft 14s 6s 11 13 mph 1015.1mb 60f 61f
1:50 3.5ft 16s 6s 13 16 mph 1015.7mb 59f 60f
12:50 3.5ft 15s 6s 13 16 mph 1015.8mb 59f 60f
11:50 3.5ft 14s 6s 11 13 mph 1016mb 59f 60f
10:50 3.5ft 15s 6s 11 13 mph 1015.8mb 59f 59f
9:50 3.5ft 14s 6s 11 13 mph 1015.6mb 59f 60f
8:50 3.5ft 15s 6s 11 13 mph 1015.1mb 60f 60f
7:50 3.5ft 14s 6s 13 16 mph 1014.4mb 60f 60f
6:50 3.5ft 15s 6s 16 18 mph 1014mb 60f 60f
5:50 3.5ft 14s 5s 16 18 mph 1013.7mb 60f 59f
4:50 3.5ft 15s 5s 16 18 mph 1013.2mb 60f 59f
3:50 3.5ft 15s 5s 18 20 mph 1013mb 60f 59f
2:50 3.5ft 15s 5s 18 20 mph 1012.9mb 60f 59f
1:50 4ft 15s 5s 18 20 mph 1012.8mb 59f 59f
12:50 4ft 15s 5s 20 22 mph 1012.8mb 59f 59f
jeu. 08/25 11:50 4ft 14s 5s 20 25 mph 1012.9mb 59f 59f
10:50 4ft 14s 5s 20 25 mph 1012.9mb 59f 59f
9:50 4ft 15s 5s 22 27 mph 1012.9mb 59f 59f
8:50 3.5ft 14s 5s 22 27 mph 1012.5mb 60f 59f
7:50 4ft 14s 5s 22 25 mph 1012.4mb 60f 59f
6:50 3.5ft 14s 5s 20 25 mph 1012.1mb 60f 60f
5:50 3.5ft 16s 5s 20 25 mph 1012.3mb 60f 60f
4:50 3.5ft 14s 5s 18 20 mph 1012.5mb 60f 60f
3:50 3.5ft 15s 5s 18 20 mph 1012.9mb 61f 59f
2:50 3.5ft 15s 5s 18 22 mph 1013.4mb 62f 59f
1:50 3.5ft 17s 5s 18 22 mph 1014mb 63f 59f
12:50 3.5ft 5s 5s 18 20 mph 1014.5mb 62f 59f
11:50 3.5ft 16s 5s 18 20 mph 1014.9mb 62f 58f
10:50 3.5ft 5s 5s 18 20 mph 1015.2mb 62f 58f
9:50 3.5ft 5s 5s 18 20 mph 1015.1mb 62f 58f
8:50 3.5ft 5s 5s 18 22 mph 1014.9mb 62f 58f
7:50 3.5ft 6s 5s 20 22 mph 1014.7mb 61f 58f
6:50 4ft 5s 4s 22 27 mph 1014.3mb 61f 58f
5:50 4ft 5s 4s 20 25 mph 1013.9mb 61f 58f
4:50 4ft 5s 5s 22 27 mph 1013.8mb 61f 58f